Time;durP1;ratioP1;P1;durP2;ratioP2;P2;SDS_P1;SDS_P2;PMS_P1;PMS_P2;Temp;Humidity;BMP_temperature;BMP_pressure;BME280_temperature;BME280_humidity;BME280_pressure;Samples;Min_cycle;Max_cycle;Signal;HPM_P1;HPM_P2
2022/06/30 00:01:07;;;;;;;9.98;8.98;;;22.10;99.90;;;;;;5034367;28;20095;-72
2022/06/30 00:03:34;;;;;;;10.18;9.07;;;22.10;99.90;;;;;;5034592;28;20042;-72
2022/06/30 00:06:02;;;;;;;12.43;9.60;;;22.00;99.90;;;;;;5034292;28;20049;-72
2022/06/30 00:08:30;;;;;;;11.23;8.70;;;21.90;99.90;;;;;;5034272;28;20045;-72
2022/06/30 00:11:06;;;;;;;12.07;9.25;;;22.00;99.90;;;;;;5034594;28;20112;-72
2022/06/30 00:13:34;;;;;;;12.32;9.07;;;21.90;99.90;;;;;;5034377;28;20430;-72
2022/06/30 00:16:02;;;;;;;9.88;8.88;;;21.90;99.90;;;;;;5034253;28;20041;-72
2022/06/30 00:18:30;;;;;;;12.80;9.20;;;21.90;99.90;;;;;;5034483;28;20047;-72
2022/06/30 00:20:57;;;;;;;11.02;8.65;;;21.80;99.90;;;;;;5035715;28;20215;-71
2022/06/30 00:23:24;;;;;;;12.02;8.85;;;21.70;99.90;;;;;;5039807;28;20049;-72
2022/06/30 00:25:52;;;;;;;11.93;9.13;;;21.70;99.90;;;;;;5045081;28;20100;-72
2022/06/30 00:28:21;;;;;;;10.45;8.98;;;21.60;99.90;;;;;;5036247;28;20038;-72
2022/06/30 00:30:49;;;;;;;9.95;8.88;;;21.60;99.90;;;;;;5037543;28;20496;-72
2022/06/30 00:33:17;;;;;;;10.43;9.30;;;21.50;99.90;;;;;;5038831;28;20076;-72
2022/06/30 00:35:45;;;;;;;10.10;9.00;;;21.40;99.90;;;;;;5040644;28;20037;-72
2022/06/30 00:38:13;;;;;;;12.38;9.38;;;21.40;99.90;;;;;;5039179;28;20045;-72
2022/06/30 00:40:44;;;;;;;18.48;10.15;;;21.40;99.90;;;;;;5032915;28;20046;-72
2022/06/30 00:43:11;;;;;;;11.88;8.95;;;21.40;99.90;;;;;;5033968;28;20053;-72
2022/06/30 00:45:42;;;;;;;11.32;9.13;;;21.30;99.90;;;;;;5033546;28;20069;-72
2022/06/30 00:48:10;;;;;;;13.77;9.43;;;21.30;99.90;;;;;;5034461;28;20138;-72
2022/06/30 00:50:38;;;;;;;9.80;8.77;;;21.40;99.90;;;;;;5031522;28;20091;-72
2022/06/30 00:53:07;;;;;;;11.48;8.90;;;21.30;99.90;;;;;;5033971;28;20052;-72
2022/06/30 00:55:35;;;;;;;14.10;8.80;;;21.40;99.90;;;;;;5034247;28;20411;-72
2022/06/30 00:58:04;;;;;;;11.27;9.48;;;21.30;99.90;;;;;;5035372;28;20072;-72
2022/06/30 01:00:35;;;;;;;11.07;9.77;;;21.20;99.90;;;;;;5034829;28;20060;-71
2022/06/30 01:03:06;;;;;;;11.95;9.13;;;21.10;99.90;;;;;;5013521;28;20073;-72
2022/06/30 01:05:35;;;;;;;13.35;9.27;;;21.10;99.90;;;;;;5026514;28;20037;-72
2022/06/30 01:08:02;;;;;;;11.55;8.77;;;21.20;99.90;;;;;;5034876;28;20041;-72
2022/06/30 01:13:14;;;;;;;11.90;9.60;;;21.20;99.90;;;;;;5033256;28;20099;-73
2022/06/30 01:15:42;;;;;;;22.27;9.00;;;21.30;99.90;;;;;;5032035;28;20092;-71
2022/06/30 01:18:10;;;;;;;9.43;8.50;;;21.30;99.90;;;;;;5033351;28;20120;-72
2022/06/30 01:20:38;;;;;;;12.90;8.80;;;21.30;99.90;;;;;;5033132;28;20447;-72
2022/06/30 01:23:07;;;;;;;10.07;8.77;;;21.30;99.90;;;;;;5033499;28;20520;-71
2022/06/30 01:25:34;;;;;;;11.13;8.88;;;21.30;99.90;;;;;;5033537;28;20448;-71
2022/06/30 01:28:01;;;;;;;11.80;8.38;;;21.40;99.90;;;;;;5033480;28;20049;-71
2022/06/30 01:30:29;;;;;;;10.93;8.43;;;21.40;99.90;;;;;;5032289;28;20045;-71
2022/06/30 01:32:57;;;;;;;12.27;9.15;;;21.40;99.90;;;;;;5033184;28;20088;-71
2022/06/30 01:35:24;;;;;;;12.60;9.07;;;21.40;99.90;;;;;;5032954;28;20547;-71
2022/06/30 01:37:53;;;;;;;11.95;8.32;;;21.40;99.90;;;;;;5033442;28;20095;-71
2022/06/30 01:40:24;;;;;;;12.73;9.18;;;21.40;99.90;;;;;;5033150;28;20076;-70
2022/06/30 01:42:51;;;;;;;11.77;9.25;;;21.30;99.90;;;;;;5033255;28;20118;-70
2022/06/30 01:45:19;;;;;;;9.90;8.88;;;21.30;99.90;;;;;;5032968;28;20041;-70
2022/06/30 01:47:46;;;;;;;13.70;9.82;;;21.30;99.90;;;;;;5031876;28;20480;-71
2022/06/30 01:50:16;;;;;;;11.57;9.75;;;21.20;99.90;;;;;;5050862;28;20073;-70
2022/06/30 01:52:43;;;;;;;11.50;9.35;;;21.10;99.90;;;;;;5035783;28;20053;-72
2022/06/30 01:55:12;;;;;;;12.70;10.02;;;21.10;99.90;;;;;;5037325;28;20128;-72
2022/06/30 01:57:41;;;;;;;12.63;10.15;;;21.00;99.90;;;;;;5037140;28;20046;-72
2022/06/30 02:00:11;;;;;;;12.05;9.68;;;21.00;99.90;;;;;;5037060;28;20075;-73
2022/06/30 02:02:39;;;;;;;11.93;9.45;;;21.00;99.90;;;;;;5036371;28;20046;-72
2022/06/30 02:05:08;;;;;;;12.82;9.68;;;21.00;99.90;;;;;;5036725;28;20053;-71
2022/06/30 02:07:36;;;;;;;11.25;9.65;;;21.00;99.90;;;;;;5036616;28;20103;-72
2022/06/30 02:10:04;;;;;;;11.23;9.00;;;21.00;99.90;;;;;;5036842;28;20132;-72
2022/06/30 02:12:46;;;;;;;12.90;9.77;;;21.00;99.90;;;;;;5036557;28;20480;-71
2022/06/30 02:15:17;;;;;;;12.90;11.48;;;20.90;99.90;;;;;;5036278;28;20100;-72
2022/06/30 02:17:45;;;;;;;12.15;9.70;;;20.80;99.90;;;;;;5036418;28;20115;-72
2022/06/30 02:20:13;;;;;;;13.15;9.40;;;20.80;99.90;;;;;;5036652;28;20045;-72
2022/06/30 02:22:42;;;;;;;11.73;9.77;;;20.80;99.90;;;;;;5035960;28;20393;-71
2022/06/30 02:25:10;;;;;;;14.90;9.85;;;20.80;99.90;;;;;;5036799;28;20041;-72
2022/06/30 02:27:37;;;;;;;10.88;9.18;;;20.80;99.90;;;;;;5036157;28;20060;-72
2022/06/30 02:30:06;;;;;;;9.80;8.77;;;20.70;99.90;;;;;;5035119;28;20050;-71
2022/06/30 02:32:36;;;;;;;12.85;10.18;;;20.70;99.90;;;;;;5035786;28;20057;-71
2022/06/30 02:35:04;;;;;;;10.77;9.20;;;20.60;99.90;;;;;;5036417;28;20551;-72
2022/06/30 02:37:31;;;;;;;11.20;9.75;;;20.60;99.90;;;;;;5035887;28;20045;-72
2022/06/30 02:39:58;;;;;;;11.45;9.75;;;20.60;99.90;;;;;;5035954;28;20051;-72
2022/06/30 02:42:26;;;;;;;11.40;10.20;;;20.60;99.90;;;;;;5035800;28;20507;-71
2022/06/30 02:44:53;;;;;;;11.95;9.75;;;20.50;99.90;;;;;;5036028;28;20061;-72
2022/06/30 02:47:20;;;;;;;12.80;10.43;;;20.60;99.90;;;;;;5035534;28;20049;-74
2022/06/30 02:49:49;;;;;;;13.45;10.50;;;20.50;99.90;;;;;;5047460;28;20037;-72
2022/06/30 02:52:16;;;;;;;11.52;10.13;;;20.50;99.90;;;;;;5042011;28;20053;-73
2022/06/30 02:54:44;;;;;;;11.05;9.40;;;20.40;99.90;;;;;;5035772;28;20519;-74
2022/06/30 02:57:11;;;;;;;12.38;10.13;;;20.50;99.90;;;;;;5034412;28;20049;-72
2022/06/30 02:59:38;;;;;;;14.55;9.48;;;20.40;99.90;;;;;;5035880;28;20041;-72
2022/06/30 03:02:06;;;;;;;16.13;10.00;;;20.40;99.90;;;;;;5034736;28;20042;-73
2022/06/30 03:04:33;;;;;;;12.70;9.57;;;20.40;99.90;;;;;;5035173;28;20049;-73
2022/06/30 03:07:02;;;;;;;16.38;9.32;;;20.40;99.90;;;;;;5034869;28;20516;-71
2022/06/30 03:09:29;;;;;;;15.63;10.52;;;20.40;99.90;;;;;;5034618;28;20049;-71
2022/06/30 03:11:56;;;;;;;13.32;10.10;;;20.40;99.90;;;;;;5034946;28;20478;-71
2022/06/30 03:14:23;;;;;;;14.10;9.88;;;20.30;99.90;;;;;;5035354;28;20342;-72
2022/06/30 03:16:51;;;;;;;14.15;10.43;;;20.40;99.90;;;;;;5035369;28;20073;-72
2022/06/30 03:19:19;;;;;;;11.30;9.30;;;20.40;99.90;;;;;;5035771;28;20037;-72
2022/06/30 03:21:46;;;;;;;10.82;9.73;;;20.30;99.90;;;;;;5035072;28;20042;-71
2022/06/30 03:24:15;;;;;;;13.50;9.68;;;20.30;99.90;;;;;;5035105;28;20045;-72
2022/06/30 03:26:42;;;;;;;14.20;10.63;;;20.30;99.90;;;;;;5035572;28;20033;-72
2022/06/30 03:29:09;;;;;;;12.40;10.73;;;20.40;99.90;;;;;;5035491;28;20400;-71
2022/06/30 03:31:37;;;;;;;13.73;11.82;;;20.40;99.90;;;;;;5035520;28;20081;-69
2022/06/30 03:34:04;;;;;;;16.55;11.32;;;20.50;99.90;;;;;;5035092;28;20057;-69
2022/06/30 03:36:32;;;;;;;14.20;10.02;;;20.50;99.90;;;;;;5034906;28;20081;-70
2022/06/30 03:39:00;;;;;;;13.80;10.63;;;20.50;99.90;;;;;;5035020;28;20095;-70
2022/06/30 03:41:29;;;;;;;15.27;9.80;;;20.60;99.90;;;;;;5035111;28;20045;-69
2022/06/30 03:43:57;;;;;;;13.20;10.45;;;20.60;99.90;;;;;;5034664;28;20037;-69
2022/06/30 03:46:24;;;;;;;18.27;10.73;;;20.70;99.90;;;;;;5033446;28;20073;-69
2022/06/30 03:48:51;;;;;;;15.48;9.98;;;20.80;99.90;;;;;;5038518;28;20477;-69
2022/06/30 03:51:19;;;;;;;12.85;10.05;;;20.90;99.90;;;;;;5036040;28;20095;-69
2022/06/30 03:53:46;;;;;;;14.35;10.40;;;21.00;99.90;;;;;;5034153;28;20040;-71
2022/06/30 03:56:13;;;;;;;18.13;9.68;;;21.10;99.90;;;;;;5034788;28;20037;-70
2022/06/30 03:58:42;;;;;;;185.27;25.88;;;21.30;99.90;;;;;;5034561;28;20113;-71
2022/06/30 04:01:09;;;;;;;22.13;9.75;;;21.70;99.90;;;;;;5032858;28;20041;-69
2022/06/30 04:03:36;;;;;;;12.23;8.38;;;22.10;99.90;;;;;;5033609;28;20096;-69
2022/06/30 04:06:04;;;;;;;11.65;8.20;;;22.60;99.90;;;;;;5034237;28;20151;-69
2022/06/30 04:08:31;;;;;;;17.42;8.20;;;23.00;99.90;;;;;;5033342;28;20046;-69
2022/06/30 04:10:58;;;;;;;14.95;8.82;;;23.30;99.90;;;;;;5034907;28;20091;-69
2022/06/30 04:13:25;;;;;;;31.88;9.10;;;23.50;99.90;;;;;;5034894;28;20104;-69
2022/06/30 04:15:55;;;;;;;10.93;8.13;;;23.60;99.90;;;;;;5034561;28;20048;-69
2022/06/30 04:18:22;;;;;;;10.73;7.63;;;24.20;98.70;;;;;;5034076;28;20041;-69
2022/06/30 04:20:49;;;;;;;9.38;7.55;;;24.50;1.00;;;;;;5034244;28;20099;-69
2022/06/30 04:23:17;;;;;;;10.63;7.10;;;24.90;1.00;;;;;;5033246;28;20041;-68
2022/06/30 04:25:44;;;;;;;8.80;7.50;;;25.10;1.00;;;;;;5034233;28;20095;-69
2022/06/30 04:28:11;;;;;;;9.80;7.90;;;25.30;99.90;;;;;;5032435;28;20053;-69
2022/06/30 04:33:25;;;;;;;12.60;8.27;;;25.60;1.00;;;;;;5027833;28;20052;-70
2022/06/30 04:35:52;;;;;;;11.98;7.93;;;26.10;78.00;;;;;;5042337;28;20056;-70
2022/06/30 04:38:19;;;;;;;10.75;7.68;;;26.40;84.60;;;;;;5046782;28;20050;-68
2022/06/30 04:43:31;;;;;;;15.13;8.60;;;27.00;99.90;;;;;;5045472;28;20048;-70
2022/06/30 04:45:59;;;;;;;10.45;7.97;;;27.10;1.00;;;;;;5036204;28;20073;-70
2022/06/30 04:48:27;;;;;;;12.95;8.07;;;27.40;1.00;;;;;;5053583;28;20484;-70
2022/06/30 04:50:54;;;;;;;12.45;7.85;;;28.00;99.90;;;;;;5037560;28;20112;-70
2022/06/30 04:53:22;;;;;;;13.38;7.82;;;28.40;1.00;;;;;;5033464;28;20044;-69
2022/06/30 04:55:49;;;;;;;23.63;9.68;;;28.90;1.00;;;;;;5033367;28;20045;-70
2022/06/30 04:58:16;;;;;;;17.02;10.18;;;29.60;1.00;;;;;;5033542;28;20037;-69
2022/06/30 05:00:43;;;;;;;15.73;8.15;;;29.90;1.00;;;;;;5032670;28;20041;-70
2022/06/30 05:03:11;;;;;;;13.73;8.20;;;29.60;99.90;;;;;;5033097;28;20484;-69
2022/06/30 05:05:40;;;;;;;13.02;8.30;;;29.40;1.00;;;;;;5033400;28;20045;-69
2022/06/30 05:08:07;;;;;;;18.70;10.20;;;28.80;99.90;;;;;;5032193;28;20550;-69
2022/06/30 05:10:34;;;;;;;18.95;9.30;;;29.10;1.00;;;;;;5046944;28;20063;-70
2022/06/30 05:13:01;;;;;;;16.95;9.07;;;28.70;72.10;;;;;;5040177;28;20041;-70
2022/06/30 05:15:29;;;;;;;16.55;10.10;;;28.90;99.90;;;;;;5053096;28;20049;-69
2022/06/30 05:17:56;;;;;;;21.38;11.10;;;29.50;1.00;;;;;;5051787;28;20052;-70
2022/06/30 05:20:24;;;;;;;26.55;11.82;;;30.30;99.90;;;;;;5053185;28;20063;-69
2022/06/30 05:22:52;;;;;;;15.05;9.95;;;30.80;99.90;;;;;;5052787;28;20053;-70
2022/06/30 05:28:06;;;;;;;15.13;10.32;;;30.90;99.90;;;;;;5051008;28;20162;-70
2022/06/30 05:30:34;;;;;;;21.17;15.30;;;30.90;1.00;;;;;;5039471;28;20405;-69
2022/06/30 05:33:01;;;;;;;17.15;10.68;;;31.40;23.70;;;;;;5032473;28;20053;-69
2022/06/30 05:35:29;;;;;;;19.95;11.68;;;31.40;76.90;;;;;;5032560;28;20045;-70
2022/06/30 05:37:58;;;;;;;28.45;14.52;;;31.50;1.00;;;;;;5033225;28;20084;-71
2022/06/30 05:40:25;;;;;;;16.60;11.05;;;32.10;1.00;;;;;;5033474;28;20127;-70
2022/06/30 05:42:52;;;;;;;23.60;11.88;;;32.90;1.00;;;;;;5031127;28;20345;-70
2022/06/30 05:45:20;;;;;;;12.65;9.27;;;33.20;1.00;;;;;;5031161;28;20057;-70
2022/06/30 05:47:48;;;;;;;18.67;10.45;;;33.60;1.00;;;;;;5032437;28;20076;-69
2022/06/30 05:50:16;;;;;;;15.00;9.63;;;33.90;1.00;;;;;;5031350;28;20515;-71
2022/06/30 05:52:43;;;;;;;14.45;9.93;;;33.90;1.00;;;;;;5032387;28;20045;-69
2022/06/30 05:55:12;;;;;;;18.63;10.27;;;33.50;1.00;;;;;;5030895;28;20052;-71
2022/06/30 05:57:51;;;;;;;17.00;9.70;;;33.30;25.70;;;;;;5032743;28;20630;-70
2022/06/30 06:00:19;;;;;;;16.17;9.63;;;33.40;24.00;;;;;;5032107;28;20104;-71
2022/06/30 06:02:46;;;;;;;19.48;11.38;;;33.20;51.40;;;;;;5031095;28;20132;-71
2022/06/30 06:05:15;;;;;;;20.25;12.02;;;33.00;37.50;;;;;;5040130;28;20068;-71
2022/06/30 06:07:43;;;;;;;15.98;10.90;;;32.10;46.70;;;;;;5049272;28;20055;-70
2022/06/30 06:10:13;;;;;;;17.00;10.95;;;31.10;49.10;;;;;;5052802;28;20087;-71
2022/06/30 06:12:42;;;;;;;19.70;11.27;;;29.80;62.50;;;;;;5038356;28;20037;-70
2022/06/30 06:15:11;;;;;;;16.20;11.48;;;29.50;1.00;;;;;;5032079;28;20041;-70
2022/06/30 06:17:42;;;;;;;20.50;12.68;;;29.50;1.00;;;;;;5034516;28;20041;-71
2022/06/30 06:20:11;;;;;;;19.52;11.93;;;29.70;99.90;;;;;;5032493;28;20460;-71
2022/06/30 06:22:38;;;;;;;21.83;12.18;;;30.50;99.90;;;;;;5032442;28;20069;-71
2022/06/30 06:25:06;;;;;;;22.67;14.80;;;31.20;99.90;;;;;;5031811;28;20049;-72
2022/06/30 06:27:35;;;;;;;23.90;14.75;;;31.80;1.00;;;;;;5044565;28;20118;-72
2022/06/30 06:30:03;;;;;;;21.63;13.00;;;31.80;1.00;;;;;;5052444;28;20045;-69
2022/06/30 06:32:31;;;;;;;22.70;15.65;;;31.90;99.90;;;;;;5032575;28;20158;-71
2022/06/30 06:34:58;;;;;;;21.55;14.90;;;31.80;99.90;;;;;;5034388;28;20049;-72
2022/06/30 06:37:25;;;;;;;27.00;16.02;;;32.00;99.90;;;;;;5057877;28;20124;-70
2022/06/30 06:39:53;;;;;;;23.13;15.20;;;32.00;99.90;;;;;;5058689;28;20068;-71
2022/06/30 06:42:20;;;;;;;24.60;15.68;;;32.20;99.90;;;;;;5057468;28;20094;-71
2022/06/30 06:44:49;;;;;;;25.67;16.17;;;32.30;99.90;;;;;;5039050;28;20041;-71
2022/06/30 06:47:17;;;;;;;22.80;15.00;;;32.20;1.00;;;;;;5035594;28;20041;-72
2022/06/30 06:49:45;;;;;;;27.58;15.10;;;32.20;7.00;;;;;;5036611;28;20033;-72
2022/06/30 06:52:12;;;;;;;20.85;12.50;;;32.10;99.90;;;;;;5048589;28;20041;-72
2022/06/30 06:54:39;;;;;;;29.40;13.65;;;32.40;99.90;;;;;;5055946;28;20099;-71
2022/06/30 06:57:07;;;;;;;28.33;12.23;;;32.50;1.00;;;;;;5016220;28;20501;-71
2022/06/30 06:59:36;;;;;;;32.38;16.30;;;32.40;1.00;;;;;;5016731;28;20132;-71
2022/06/30 07:02:05;;;;;;;23.80;14.10;;;32.40;1.00;;;;;;5015885;28;20104;-70
2022/06/30 07:04:33;;;;;;;25.90;13.05;;;32.40;1.00;;;;;;5015712;28;20457;-71
2022/06/30 07:07:00;;;;;;;25.58;13.00;;;32.40;1.00;;;;;;5034610;28;20045;-71
2022/06/30 07:09:27;;;;;;;19.65;13.02;;;32.30;1.00;;;;;;5049079;28;20140;-71
2022/06/30 07:11:55;;;;;;;23.65;12.48;;;32.20;1.00;;;;;;5035329;28;20443;-71
2022/06/30 07:14:22;;;;;;;24.13;12.38;;;32.10;1.00;;;;;;5034920;28;20096;-71
2022/06/30 07:16:49;;;;;;;19.10;12.82;;;32.00;1.00;;;;;;5034977;28;20100;-71
2022/06/30 07:19:18;;;;;;;28.10;13.30;;;32.10;1.00;;;;;;5034467;28;20038;-70
2022/06/30 07:21:45;;;;;;;23.75;12.57;;;32.30;1.00;;;;;;5034751;28;20049;-70
2022/06/30 07:24:13;;;;;;;25.20;12.50;;;32.00;62.10;;;;;;5034818;28;20037;-71
2022/06/30 07:26:40;;;;;;;20.92;11.77;;;32.20;63.80;;;;;;5034214;28;20068;-71
2022/06/30 07:29:08;;;;;;;20.23;12.27;;;32.30;66.70;;;;;;5045677;28;20549;-70
2022/06/30 07:31:35;;;;;;;17.67;11.85;;;32.20;58.20;;;;;;5051748;28;20055;-71
2022/06/30 07:34:05;;;;;;;22.58;11.02;;;31.70;69.40;;;;;;5034427;28;20453;-72
2022/06/30 07:36:33;;;;;;;28.83;11.98;;;31.50;99.90;;;;;;5035220;28;20049;-69
2022/06/30 07:39:01;;;;;;;25.10;13.35;;;31.40;99.90;;;;;;5044453;28;20148;-70
2022/06/30 07:41:29;;;;;;;21.73;11.48;;;31.50;99.90;;;;;;5054561;28;20407;-71
2022/06/30 07:43:56;;;;;;;26.08;12.77;;;31.40;99.90;;;;;;5054652;28;20091;-71
2022/06/30 07:46:23;;;;;;;21.90;11.73;;;31.30;99.90;;;;;;5054921;28;20045;-71
2022/06/30 07:48:51;;;;;;;24.58;12.02;;;31.30;99.90;;;;;;5054161;28;20053;-71
2022/06/30 07:51:20;;;;;;;28.85;10.95;;;31.60;99.90;;;;;;5054186;28;20446;-71
2022/06/30 07:53:49;;;;;;;23.33;10.82;;;32.00;99.90;;;;;;5054393;28;20037;-72
2022/06/30 07:56:17;;;;;;;24.02;11.27;;;32.10;99.90;;;;;;5054564;28;20077;-71
2022/06/30 07:58:44;;;;;;;32.00;11.95;;;32.40;99.40;;;;;;5054935;28;20049;-70
2022/06/30 08:01:12;;;;;;;24.80;10.05;;;32.60;96.70;;;;;;5054361;28;20039;-70
2022/06/30 08:03:39;;;;;;;26.35;10.50;;;32.60;94.70;;;;;;5053060;28;20055;-71
2022/06/30 08:06:06;;;;;;;27.27;10.10;;;32.70;93.80;;;;;;5044170;28;20052;-71
2022/06/30 08:08:34;;;;;;;23.17;7.47;;;33.00;93.20;;;;;;5034363;28;20052;-71
2022/06/30 08:11:03;;;;;;;32.47;9.40;;;33.00;91.20;;;;;;5034093;28;20060;-71
2022/06/30 08:13:30;;;;;;;23.52;8.63;;;33.00;91.20;;;;;;5030887;28;20033;-71
2022/06/30 08:15:58;;;;;;;25.10;8.63;;;33.20;90.90;;;;;;5032655;28;20495;-71
2022/06/30 08:18:25;;;;;;;20.13;7.72;;;33.30;88.70;;;;;;5034228;28;20076;-70
2022/06/30 08:20:52;;;;;;;24.80;11.15;;;33.50;87.60;;;;;;5034240;28;20047;-71
2022/06/30 08:23:19;;;;;;;25.52;9.82;;;33.40;86.30;;;;;;5035554;28;20049;-70
2022/06/30 08:25:49;;;;;;;24.75;7.97;;;33.40;86.30;;;;;;5034865;28;20128;-71
2022/06/30 08:28:18;;;;;;;24.90;7.82;;;33.50;84.00;;;;;;5037683;28;20103;-70
2022/06/30 08:30:46;;;;;;;23.35;8.45;;;33.70;82.10;;;;;;5038411;28;20117;-72
2022/06/30 08:33:13;;;;;;;19.02;7.28;;;33.80;81.80;;;;;;5037116;28;20442;-70
2022/06/30 08:35:41;;;;;;;17.63;6.93;;;33.90;77.80;;;;;;5034409;28;20041;-70
2022/06/30 08:38:09;;;;;;;26.08;6.88;;;33.80;75.60;;;;;;5033991;28;20038;-70
2022/06/30 08:43:25;;;;;;;19.15;5.32;;;33.50;71.10;;;;;;5022388;28;20081;-71
2022/06/30 08:45:56;;;;;;;15.90;6.32;;;33.30;69.70;;;;;;5034562;28;20141;-71
2022/06/30 08:48:24;;;;;;;16.55;6.47;;;33.50;69.80;;;;;;5034283;28;20041;-71
2022/06/30 08:50:57;;;;;;;13.52;6.10;;;33.30;72.60;;;;;;5043109;28;20080;-70
2022/06/30 08:53:25;;;;;;;18.35;6.88;;;33.30;74.30;;;;;;5033181;28;20052;-71
2022/06/30 08:55:53;;;;;;;21.38;6.80;;;33.40;74.10;;;;;;5030951;28;20378;-71
2022/06/30 08:58:22;;;;;;;20.08;6.55;;;33.50;74.70;;;;;;5020178;28;20091;-71
2022/06/30 09:00:53;;;;;;;26.80;7.28;;;33.40;73.90;;;;;;5033257;28;20026;-71
2022/06/30 09:03:20;;;;;;;18.00;6.88;;;33.30;72.70;;;;;;5018697;28;20117;-70
2022/06/30 09:05:48;;;;;;;20.67;7.30;;;33.30;72.70;;;;;;5031717;28;20159;-71
2022/06/30 09:08:15;;;;;;;15.57;6.88;;;33.30;73.60;;;;;;5034345;28;20044;-71
2022/06/30 09:10:50;;;;;;;19.98;7.05;;;33.40;74.30;;;;;;5031141;28;20080;-70
2022/06/30 09:13:18;;;;;;;21.75;7.82;;;33.40;74.40;;;;;;5032847;28;20480;-70
2022/06/30 09:15:47;;;;;;;16.00;6.25;;;33.40;74.10;;;;;;5032895;28;20485;-70
2022/06/30 09:18:23;;;;;;;24.88;7.28;;;33.60;74.50;;;;;;5033516;28;20393;-71
2022/06/30 09:20:52;;;;;;;16.75;6.70;;;33.60;74.60;;;;;;5031771;28;20060;-71
2022/06/30 09:23:20;;;;;;;21.35;6.63;;;33.70;73.50;;;;;;5032875;28;20041;-70
2022/06/30 09:25:50;;;;;;;22.70;6.55;;;33.80;73.20;;;;;;5033053;28;20049;-70
2022/06/30 09:28:37;;;;;;;15.98;6.60;;;33.80;72.50;;;;;;5033069;28;20052;-70
2022/06/30 09:33:45;;;;;;;23.27;6.53;;;33.60;71.40;;;;;;5068424;28;20534;-76
2022/06/30 09:36:22;;;;;;;14.73;6.90;;;33.70;70.70;;;;;;5066041;28;20101;-75
2022/06/30 09:39:01;;;;;;;17.65;6.68;;;33.60;70.50;;;;;;5041853;28;20052;-74
2022/06/30 09:41:29;;;;;;;19.20;8.35;;;33.50;71.10;;;;;;5035396;28;20056;-75
2022/06/30 09:43:57;;;;;;;29.42;9.25;;;33.70;71.40;;;;;;5034099;28;20519;-76
2022/06/30 09:46:24;;;;;;;22.42;7.57;;;33.50;68.80;;;;;;5051801;28;20514;-76
2022/06/30 09:48:53;;;;;;;22.98;7.05;;;33.40;68.30;;;;;;5047380;28;20057;-78
2022/06/30 09:51:20;;;;;;;20.00;7.57;;;33.40;68.60;;;;;;5054507;28;20484;-75
2022/06/30 09:54:09;;;;;;;28.13;8.13;;;33.60;67.80;;;;;;5036523;28;20140;-77
2022/06/30 09:56:36;;;;;;;23.50;8.07;;;33.50;68.30;;;;;;5042546;28;20052;-77
2022/06/30 09:59:07;;;;;;;19.98;7.85;;;33.50;68.40;;;;;;5054172;28;20048;-76
2022/06/30 10:01:51;;;;;;;17.50;6.88;;;33.70;68.10;;;;;;5053903;28;20052;-74
2022/06/30 10:04:19;;;;;;;14.35;6.72;;;33.90;68.20;;;;;;5053305;28;20123;-75
2022/06/30 10:06:47;;;;;;;18.88;6.88;;;34.10;67.00;;;;;;5056346;28;20041;-76
2022/06/30 10:09:17;;;;;;;20.45;6.78;;;34.30;65.50;;;;;;5072421;28;20110;-76
2022/06/30 10:11:45;;;;;;;16.70;7.03;;;34.20;64.10;;;;;;5067384;28;20033;-75
2022/06/30 10:14:13;;;;;;;18.30;7.22;;;33.90;65.60;;;;;;5057283;28;20407;-74
2022/06/30 10:16:42;;;;;;;17.08;7.35;;;33.70;67.00;;;;;;5057835;28;20040;-75
2022/06/30 10:19:10;;;;;;;14.57;6.97;;;33.80;67.40;;;;;;5056259;28;20075;-75
2022/06/30 10:21:40;;;;;;;23.35;7.43;;;33.80;68.00;;;;;;5056690;28;20060;-75
2022/06/30 10:24:09;;;;;;;19.52;6.65;;;33.80;69.10;;;;;;5057217;28;20065;-75
2022/06/30 10:29:21;;;;;;;18.92;7.38;;;34.00;66.70;;;;;;5060100;28;20041;-76
2022/06/30 10:31:55;;;;;;;17.20;6.38;;;34.10;70.80;;;;;;5038902;28;20080;-75
2022/06/30 10:34:26;;;;;;;17.30;7.07;;;34.20;68.50;;;;;;5047527;28;20037;-74
2022/06/30 10:37:04;;;;;;;17.27;6.85;;;34.30;64.70;;;;;;5057001;28;20045;-76
2022/06/30 10:39:44;;;;;;;18.13;6.72;;;34.30;67.10;;;;;;5056058;28;20123;-75
2022/06/30 10:42:31;;;;;;;19.63;6.80;;;34.20;64.70;;;;;;5018597;28;20075;-74
2022/06/30 10:44:59;;;;;;;15.85;8.02;;;34.20;64.00;;;;;;5047786;28;20155;-75
2022/06/30 10:47:27;;;;;;;18.50;7.10;;;34.30;66.20;;;;;;5055403;28;20044;-75
2022/06/30 10:49:56;;;;;;;17.67;6.72;;;34.30;63.10;;;;;;5055927;28;20045;-76
2022/06/30 10:52:28;;;;;;;15.38;6.70;;;34.20;63.60;;;;;;5055763;28;20065;-76
2022/06/30 10:55:07;;;;;;;15.00;6.10;;;34.00;62.90;;;;;;5037523;28;20045;-75
2022/06/30 10:58:00;;;;;;;14.05;5.72;;;33.90;61.50;;;;;;5038214;28;20492;-76
2022/06/30 11:00:48;;;;;;;13.23;6.38;;;34.10;60.90;;;;;;5055839;28;20103;-75
2022/06/30 11:04:00;;;;;;;14.30;5.97;;;34.10;61.50;;;;;;5056409;28;20107;-74
2022/06/30 11:07:07;;;;;;;15.80;5.82;;;34.30;60.50;;;;;;5049590;28;20063;-75
2022/06/30 11:10:01;;;;;;;;;;;34.40;60.70;;;;;;5055435;28;20484;-75
2022/06/30 11:12:58;;;;;;;15.05;5.82;;;34.40;60.70;;;;;;5039190;28;20379;-72
2022/06/30 11:16:05;;;;;;;13.88;6.50;;;34.30;60.00;;;;;;5056409;28;20041;-80
2022/06/30 11:18:35;;;;;;;18.95;6.00;;;34.30;60.80;;;;;;5046496;28;20052;-70
2022/06/30 11:21:03;;;;;;;18.13;6.15;;;34.40;60.60;;;;;;5055809;28;20041;-69
2022/06/30 11:23:39;;;;;;;16.13;6.28;;;34.50;60.00;;;;;;5054301;28;20129;-71
2022/06/30 11:28:55;;;;;;;17.02;5.95;;;34.40;61.40;;;;;;5039579;28;20127;-70
2022/06/30 11:31:31;;;;;;;17.23;5.80;;;34.00;62.00;;;;;;5058735;28;20039;-70
2022/06/30 11:34:01;;;;;;;13.73;6.35;;;34.00;61.50;;;;;;5038385;28;20047;-71
2022/06/30 11:36:29;;;;;;;16.52;6.68;;;34.10;61.20;;;;;;5051925;28;20120;-71
2022/06/30 11:38:58;;;;;;;18.33;6.72;;;34.10;61.90;;;;;;5055106;28;20072;-71
2022/06/30 11:44:15;;;;;;;16.73;6.47;;;34.30;61.60;;;;;;5056553;28;20064;-71
2022/06/30 11:46:54;;;;;;;14.82;6.25;;;34.20;61.00;;;;;;5064027;28;20045;-71
2022/06/30 11:49:22;;;;;;;14.75;5.68;;;34.30;61.30;;;;;;5055322;28;20064;-71
2022/06/30 11:51:50;;;;;;;15.10;5.78;;;34.20;61.30;;;;;;5055677;28;20044;-70
2022/06/30 11:54:18;;;;;;;21.35;5.47;;;34.10;61.60;;;;;;5055033;28;20048;-70
2022/06/30 11:56:51;;;;;;;17.60;6.07;;;34.20;61.50;;;;;;5055215;28;20045;-70
2022/06/30 11:59:21;;;;;;;13.55;5.78;;;34.00;61.30;;;;;;5055321;28;20064;-70
2022/06/30 12:02:08;;;;;;;14.55;6.00;;;33.90;61.40;;;;;;5055072;28;20061;-70
2022/06/30 12:04:41;;;;;;;17.98;6.47;;;34.00;62.70;;;;;;5055170;28;20048;-71
2022/06/30 12:07:09;;;;;;;20.70;7.03;;;34.00;61.50;;;;;;5055050;28;20045;-70
2022/06/30 12:09:37;;;;;;;16.40;6.55;;;34.20;61.20;;;;;;5038016;28;20068;-70
2022/06/30 12:12:06;;;;;;;15.40;5.40;;;34.30;60.80;;;;;;5055273;28;20533;-70
2022/06/30 12:14:36;;;;;;;17.70;5.93;;;34.30;60.60;;;;;;5055271;28;20365;-69
2022/06/30 12:17:05;;;;;;;17.90;6.43;;;34.10;61.20;;;;;;5055023;28;20116;-70
2022/06/30 12:19:33;;;;;;;17.63;6.30;;;34.30;62.30;;;;;;5037546;28;20048;-71
2022/06/30 12:22:02;;;;;;;13.57;6.07;;;34.50;61.40;;;;;;5054675;28;20175;-70
2022/06/30 12:24:29;;;;;;;18.08;5.50;;;34.50;60.70;;;;;;5042739;28;20045;-70
2022/06/30 12:26:59;;;;;;;18.48;6.10;;;34.40;59.60;;;;;;5056326;28;20507;-70
2022/06/30 12:29:28;;;;;;;19.02;7.25;;;34.00;60.10;;;;;;5055317;28;20045;-70
2022/06/30 12:32:03;;;;;;;18.27;6.15;;;34.10;61.10;;;;;;5055242;28;20462;-70
2022/06/30 12:34:31;;;;;;;17.87;7.87;;;34.30;61.20;;;;;;5053791;28;20041;-70
2022/06/30 12:37:00;;;;;;;20.40;7.20;;;34.60;60.80;;;;;;5060291;28;20408;-71
2022/06/30 12:39:28;;;;;;;17.27;5.93;;;34.80;60.20;;;;;;5056932;28;20064;-72
2022/06/30 12:42:07;;;;;;;18.98;5.55;;;34.80;60.30;;;;;;5056523;28;20033;-71
2022/06/30 12:44:36;;;;;;;17.65;5.55;;;34.80;60.00;;;;;;5054065;28;20492;-70
2022/06/30 12:47:07;;;;;;;16.45;6.00;;;34.70;59.50;;;;;;5036896;28;20056;-71
2022/06/30 12:49:35;;;;;;;18.90;6.68;;;34.60;59.70;;;;;;5059930;28;20051;-71
2022/06/30 12:52:15;;;;;;;17.10;5.93;;;34.50;60.00;;;;;;5055445;28;20048;-71
2022/06/30 12:54:54;;;;;;;16.55;5.72;;;34.50;60.20;;;;;;5055577;28;20048;-71
2022/06/30 12:57:22;;;;;;;17.67;7.13;;;34.60;59.60;;;;;;5054426;28;20045;-71
2022/06/30 12:59:52;;;;;;;16.90;7.97;;;34.70;59.40;;;;;;5054014;28;20056;-71
2022/06/30 13:02:22;;;;;;;17.08;6.60;;;34.70;59.40;;;;;;5035686;28;20068;-71
2022/06/30 13:04:51;;;;;;;20.52;6.35;;;34.80;59.30;;;;;;5058481;28;20044;-72
2022/06/30 13:07:19;;;;;;;14.73;6.05;;;34.70;59.50;;;;;;5063647;28;20456;-70
2022/06/30 13:09:49;;;;;;;15.63;6.47;;;34.70;59.80;;;;;;5071349;28;20055;-72
2022/06/30 13:12:17;;;;;;;20.92;12.48;;;34.70;61.10;;;;;;5079881;28;20135;-71